sensor_id;sensor_type;location;lat;lon;timestamp;P1;durP1;ratioP1;P2;durP2;ratioP2
50585;SDS011;36542;51.700;8.846;2023-01-24T00:01:40;15.67;;;9.43;;
50585;SDS011;36542;51.700;8.846;2023-01-24T00:04:06;13.53;;;9.10;;
50585;SDS011;36542;51.700;8.846;2023-01-24T00:06:31;11.63;;;7.97;;
50585;SDS011;36542;51.700;8.846;2023-01-24T00:08:57;13.70;;;8.43;;
50585;SDS011;36542;51.700;8.846;2023-01-24T00:11:22;13.60;;;8.70;;
50585;SDS011;36542;51.700;8.846;2023-01-24T00:13:48;11.90;;;7.90;;
50585;SDS011;36542;51.700;8.846;2023-01-24T00:16:17;12.80;;;8.57;;
50585;SDS011;36542;51.700;8.846;2023-01-24T00:18:44;12.63;;;8.37;;
50585;SDS011;36542;51.700;8.846;2023-01-24T00:21:14;12.70;;;8.87;;
50585;SDS011;36542;51.700;8.846;2023-01-24T00:23:42;13.57;;;8.57;;
50585;SDS011;36542;51.700;8.846;2023-01-24T00:26:09;12.77;;;7.97;;
50585;SDS011;36542;51.700;8.846;2023-01-24T00:28:35;14.10;;;9.03;;
50585;SDS011;36542;51.700;8.846;2023-01-24T00:31:01;15.70;;;9.77;;
50585;SDS011;36542;51.700;8.846;2023-01-24T00:33:27;13.23;;;8.03;;
50585;SDS011;36542;51.700;8.846;2023-01-24T00:35:53;11.23;;;7.10;;
50585;SDS011;36542;51.700;8.846;2023-01-24T00:38:19;13.40;;;8.17;;
50585;SDS011;36542;51.700;8.846;2023-01-24T00:40:45;10.97;;;7.67;;
50585;SDS011;36542;51.700;8.846;2023-01-24T00:43:11;10.20;;;6.90;;
50585;SDS011;36542;51.700;8.846;2023-01-24T00:45:36;11.23;;;7.07;;
50585;SDS011;36542;51.700;8.846;2023-01-24T00:48:05;12.97;;;8.60;;
50585;SDS011;36542;51.700;8.846;2023-01-24T00:50:32;13.43;;;7.97;;
50585;SDS011;36542;51.700;8.846;2023-01-24T00:52:58;8.97;;;6.20;;
50585;SDS011;36542;51.700;8.846;2023-01-24T00:55:24;10.47;;;7.37;;
50585;SDS011;36542;51.700;8.846;2023-01-24T00:57:49;13.83;;;8.20;;
50585;SDS011;36542;51.700;8.846;2023-01-24T01:00:15;10.57;;;7.60;;
50585;SDS011;36542;51.700;8.846;2023-01-24T01:02:41;10.17;;;6.90;;
50585;SDS011;36542;51.700;8.846;2023-01-24T01:05:07;11.10;;;7.40;;
50585;SDS011;36542;51.700;8.846;2023-01-24T01:07:33;9.60;;;6.43;;
50585;SDS011;36542;51.700;8.846;2023-01-24T01:09:59;9.90;;;6.40;;
50585;SDS011;36542;51.700;8.846;2023-01-24T01:12:24;10.87;;;7.33;;
50585;SDS011;36542;51.700;8.846;2023-01-24T01:14:50;10.53;;;7.03;;
50585;SDS011;36542;51.700;8.846;2023-01-24T01:17:16;12.13;;;7.80;;
50585;SDS011;36542;51.700;8.846;2023-01-24T01:19:41;10.53;;;7.20;;
50585;SDS011;36542;51.700;8.846;2023-01-24T01:22:07;12.10;;;7.33;;
50585;SDS011;36542;51.700;8.846;2023-01-24T01:24:33;11.00;;;7.73;;
50585;SDS011;36542;51.700;8.846;2023-01-24T01:26:59;9.90;;;6.93;;
50585;SDS011;36542;51.700;8.846;2023-01-24T01:29:24;10.07;;;6.77;;
50585;SDS011;36542;51.700;8.846;2023-01-24T01:31:50;10.30;;;6.57;;
50585;SDS011;36542;51.700;8.846;2023-01-24T01:34:16;11.37;;;6.80;;
50585;SDS011;36542;51.700;8.846;2023-01-24T01:36:42;9.33;;;7.03;;
50585;SDS011;36542;51.700;8.846;2023-01-24T01:39:07;11.97;;;6.67;;
50585;SDS011;36542;51.700;8.846;2023-01-24T01:41:33;9.37;;;6.33;;
50585;SDS011;36542;51.700;8.846;2023-01-24T01:44:20;9.53;;;6.43;;
50585;SDS011;36542;51.700;8.846;2023-01-24T01:47:11;10.33;;;6.63;;
50585;SDS011;36542;51.700;8.846;2023-01-24T01:49:58;9.53;;;6.30;;
50585;SDS011;36542;51.700;8.846;2023-01-24T01:52:38;9.27;;;6.70;;
50585;SDS011;36542;51.700;8.846;2023-01-24T01:55:08;9.20;;;6.30;;
50585;SDS011;36542;51.700;8.846;2023-01-24T01:57:43;10.20;;;6.33;;
50585;SDS011;36542;51.700;8.846;2023-01-24T02:00:20;9.23;;;6.43;;
50585;SDS011;36542;51.700;8.846;2023-01-24T02:02:48;11.30;;;7.20;;
50585;SDS011;36542;51.700;8.846;2023-01-24T02:05:44;8.87;;;6.03;;
50585;SDS011;36542;51.700;8.846;2023-01-24T02:08:10;11.83;;;6.90;;
50585;SDS011;36542;51.700;8.846;2023-01-24T02:10:40;9.40;;;6.37;;
50585;SDS011;36542;51.700;8.846;2023-01-24T02:13:25;10.03;;;5.63;;
50585;SDS011;36542;51.700;8.846;2023-01-24T02:15:51;11.10;;;6.27;;
50585;SDS011;36542;51.700;8.846;2023-01-24T02:18:27;10.83;;;6.10;;
50585;SDS011;36542;51.700;8.846;2023-01-24T02:20:57;8.47;;;6.30;;
50585;SDS011;36542;51.700;8.846;2023-01-24T02:23:44;9.23;;;5.53;;
50585;SDS011;36542;51.700;8.846;2023-01-24T02:26:21;10.07;;;6.57;;
50585;SDS011;36542;51.700;8.846;2023-01-24T02:28:52;9.93;;;6.53;;
50585;SDS011;36542;51.700;8.846;2023-01-24T02:31:22;10.07;;;6.23;;
50585;SDS011;36542;51.700;8.846;2023-01-24T02:33:48;10.27;;;6.33;;
50585;SDS011;36542;51.700;8.846;2023-01-24T02:36:20;8.80;;;6.50;;
50585;SDS011;36542;51.700;8.846;2023-01-24T02:39:12;10.63;;;6.70;;
50585;SDS011;36542;51.700;8.846;2023-01-24T02:44:24;10.20;;;6.47;;
50585;SDS011;36542;51.700;8.846;2023-01-24T02:46:56;10.73;;;6.97;;
50585;SDS011;36542;51.700;8.846;2023-01-24T02:49:22;8.73;;;5.90;;
50585;SDS011;36542;51.700;8.846;2023-01-24T02:51:47;9.03;;;6.27;;
50585;SDS011;36542;51.700;8.846;2023-01-24T02:54:31;9.93;;;6.37;;
50585;SDS011;36542;51.700;8.846;2023-01-24T02:56:57;11.77;;;8.03;;
50585;SDS011;36542;51.700;8.846;2023-01-24T02:59:41;9.03;;;6.63;;
50585;SDS011;36542;51.700;8.846;2023-01-24T03:02:06;9.83;;;6.53;;
50585;SDS011;36542;51.700;8.846;2023-01-24T03:04:32;10.20;;;6.83;;
50585;SDS011;36542;51.700;8.846;2023-01-24T03:06:57;9.43;;;6.63;;
50585;SDS011;36542;51.700;8.846;2023-01-24T03:09:23;10.80;;;6.70;;
50585;SDS011;36542;51.700;8.846;2023-01-24T03:11:59;10.57;;;6.63;;
50585;SDS011;36542;51.700;8.846;2023-01-24T03:14:45;8.23;;;5.90;;
50585;SDS011;36542;51.700;8.846;2023-01-24T03:17:29;8.43;;;5.77;;
50585;SDS011;36542;51.700;8.846;2023-01-24T03:20:13;9.63;;;6.27;;
50585;SDS011;36542;51.700;8.846;2023-01-24T03:22:57;7.87;;;5.80;;
50585;SDS011;36542;51.700;8.846;2023-01-24T03:25:41;7.83;;;5.23;;
50585;SDS011;36542;51.700;8.846;2023-01-24T03:28:26;8.93;;;6.40;;
50585;SDS011;36542;51.700;8.846;2023-01-24T03:31:09;8.87;;;6.33;;
50585;SDS011;36542;51.700;8.846;2023-01-24T03:33:54;9.57;;;5.90;;
50585;SDS011;36542;51.700;8.846;2023-01-24T03:36:38;9.97;;;6.40;;
50585;SDS011;36542;51.700;8.846;2023-01-24T03:39:03;9.90;;;6.63;;
50585;SDS011;36542;51.700;8.846;2023-01-24T03:41:47;8.93;;;6.40;;
50585;SDS011;36542;51.700;8.846;2023-01-24T03:44:13;8.73;;;6.20;;
50585;SDS011;36542;51.700;8.846;2023-01-24T03:46:38;9.20;;;5.93;;
50585;SDS011;36542;51.700;8.846;2023-01-24T03:49:05;9.00;;;6.40;;
50585;SDS011;36542;51.700;8.846;2023-01-24T03:51:34;8.93;;;5.73;;
50585;SDS011;36542;51.700;8.846;2023-01-24T03:54:18;8.50;;;5.67;;
50585;SDS011;36542;51.700;8.846;2023-01-24T03:56:44;8.20;;;5.80;;
50585;SDS011;36542;51.700;8.846;2023-01-24T03:59:09;9.37;;;6.40;;
50585;SDS011;36542;51.700;8.846;2023-01-24T04:01:35;11.60;;;6.50;;
50585;SDS011;36542;51.700;8.846;2023-01-24T04:04:00;10.87;;;6.40;;
50585;SDS011;36542;51.700;8.846;2023-01-24T04:06:26;9.83;;;6.60;;
50585;SDS011;36542;51.700;8.846;2023-01-24T04:08:51;9.03;;;6.33;;
50585;SDS011;36542;51.700;8.846;2023-01-24T04:11:17;8.30;;;5.77;;
50585;SDS011;36542;51.700;8.846;2023-01-24T04:13:43;8.30;;;5.93;;
50585;SDS011;36542;51.700;8.846;2023-01-24T04:16:08;9.93;;;7.10;;
50585;SDS011;36542;51.700;8.846;2023-01-24T04:18:34;10.83;;;6.33;;
50585;SDS011;36542;51.700;8.846;2023-01-24T04:21:03;9.33;;;6.43;;
50585;SDS011;36542;51.700;8.846;2023-01-24T04:23:29;11.00;;;6.80;;
50585;SDS011;36542;51.700;8.846;2023-01-24T04:25:55;9.30;;;6.43;;
50585;SDS011;36542;51.700;8.846;2023-01-24T04:28:23;11.30;;;7.23;;
50585;SDS011;36542;51.700;8.846;2023-01-24T04:30:49;10.17;;;6.63;;
50585;SDS011;36542;51.700;8.846;2023-01-24T04:33:21;10.40;;;6.63;;
50585;SDS011;36542;51.700;8.846;2023-01-24T04:35:46;9.80;;;6.80;;
50585;SDS011;36542;51.700;8.846;2023-01-24T04:38:12;10.03;;;6.67;;
50585;SDS011;36542;51.700;8.846;2023-01-24T04:40:37;6.57;;;5.17;;
50585;SDS011;36542;51.700;8.846;2023-01-24T04:43:04;8.63;;;6.20;;
50585;SDS011;36542;51.700;8.846;2023-01-24T04:45:29;9.33;;;6.00;;
50585;SDS011;36542;51.700;8.846;2023-01-24T04:47:55;10.03;;;7.03;;
50585;SDS011;36542;51.700;8.846;2023-01-24T04:50:20;9.27;;;6.50;;
50585;SDS011;36542;51.700;8.846;2023-01-24T04:52:46;11.43;;;7.07;;
50585;SDS011;36542;51.700;8.846;2023-01-24T04:55:11;10.50;;;7.07;;
50585;SDS011;36542;51.700;8.846;2023-01-24T04:57:37;9.87;;;6.17;;
50585;SDS011;36542;51.700;8.846;2023-01-24T05:00:03;8.27;;;6.57;;
50585;SDS011;36542;51.700;8.846;2023-01-24T05:02:29;9.10;;;6.83;;
50585;SDS011;36542;51.700;8.846;2023-01-24T05:04:55;11.07;;;7.27;;
50585;SDS011;36542;51.700;8.846;2023-01-24T05:07:20;11.60;;;6.03;;
50585;SDS011;36542;51.700;8.846;2023-01-24T05:09:46;9.27;;;6.20;;
50585;SDS011;36542;51.700;8.846;2023-01-24T05:12:12;11.17;;;7.17;;
50585;SDS011;36542;51.700;8.846;2023-01-24T05:14:37;9.80;;;6.30;;
50585;SDS011;36542;51.700;8.846;2023-01-24T05:17:03;8.53;;;6.07;;
50585;SDS011;36542;51.700;8.846;2023-01-24T05:19:28;8.97;;;6.17;;
50585;SDS011;36542;51.700;8.846;2023-01-24T05:21:54;9.70;;;6.23;;
50585;SDS011;36542;51.700;8.846;2023-01-24T05:24:19;10.03;;;6.03;;
50585;SDS011;36542;51.700;8.846;2023-01-24T05:26:45;10.37;;;6.97;;
50585;SDS011;36542;51.700;8.846;2023-01-24T05:29:10;9.57;;;6.43;;
50585;SDS011;36542;51.700;8.846;2023-01-24T05:31:36;9.53;;;6.63;;
50585;SDS011;36542;51.700;8.846;2023-01-24T05:34:01;9.03;;;6.50;;
50585;SDS011;36542;51.700;8.846;2023-01-24T05:36:27;9.50;;;6.60;;
50585;SDS011;36542;51.700;8.846;2023-01-24T05:38:53;10.20;;;6.20;;
50585;SDS011;36542;51.700;8.846;2023-01-24T05:41:18;7.10;;;5.50;;
50585;SDS011;36542;51.700;8.846;2023-01-24T05:43:45;8.63;;;6.20;;
50585;SDS011;36542;51.700;8.846;2023-01-24T05:46:15;7.10;;;5.90;;
50585;SDS011;36542;51.700;8.846;2023-01-24T05:48:42;6.67;;;5.70;;
50585;SDS011;36542;51.700;8.846;2023-01-24T05:51:09;8.70;;;5.63;;
50585;SDS011;36542;51.700;8.846;2023-01-24T05:53:37;7.60;;;5.73;;
50585;SDS011;36542;51.700;8.846;2023-01-24T05:56:05;8.47;;;6.40;;
50585;SDS011;36542;51.700;8.846;2023-01-24T05:58:33;7.30;;;6.20;;
50585;SDS011;36542;51.700;8.846;2023-01-24T06:01:01;8.17;;;6.03;;
50585;SDS011;36542;51.700;8.846;2023-01-24T06:03:30;8.53;;;5.80;;
50585;SDS011;36542;51.700;8.846;2023-01-24T06:05:55;7.87;;;5.80;;
50585;SDS011;36542;51.700;8.846;2023-01-24T06:08:21;7.13;;;5.50;;
50585;SDS011;36542;51.700;8.846;2023-01-24T06:10:47;8.73;;;5.30;;
50585;SDS011;36542;51.700;8.846;2023-01-24T06:13:13;7.93;;;5.07;;
50585;SDS011;36542;51.700;8.846;2023-01-24T06:15:39;9.47;;;6.03;;
50585;SDS011;36542;51.700;8.846;2023-01-24T06:18:05;6.90;;;5.43;;
50585;SDS011;36542;51.700;8.846;2023-01-24T06:20:31;7.47;;;5.53;;
50585;SDS011;36542;51.700;8.846;2023-01-24T06:23:04;7.27;;;5.53;;
50585;SDS011;36542;51.700;8.846;2023-01-24T06:25:31;7.80;;;5.83;;
50585;SDS011;36542;51.700;8.846;2023-01-24T06:27:58;7.57;;;5.70;;
50585;SDS011;36542;51.700;8.846;2023-01-24T06:30:24;9.57;;;5.83;;
50585;SDS011;36542;51.700;8.846;2023-01-24T06:35:21;8.07;;;5.97;;
50585;SDS011;36542;51.700;8.846;2023-01-24T06:37:59;7.17;;;5.43;;
50585;SDS011;36542;51.700;8.846;2023-01-24T06:40:24;6.77;;;5.70;;
50585;SDS011;36542;51.700;8.846;2023-01-24T06:42:51;6.07;;;5.03;;
50585;SDS011;36542;51.700;8.846;2023-01-24T06:45:17;6.10;;;4.80;;
50585;SDS011;36542;51.700;8.846;2023-01-24T06:47:43;6.40;;;5.33;;
50585;SDS011;36542;51.700;8.846;2023-01-24T06:50:19;6.83;;;5.50;;
50585;SDS011;36542;51.700;8.846;2023-01-24T06:52:47;7.10;;;4.73;;
50585;SDS011;36542;51.700;8.846;2023-01-24T06:55:13;6.90;;;5.03;;
50585;SDS011;36542;51.700;8.846;2023-01-24T06:57:39;7.93;;;5.37;;
50585;SDS011;36542;51.700;8.846;2023-01-24T07:00:05;6.73;;;4.97;;
50585;SDS011;36542;51.700;8.846;2023-01-24T07:02:31;6.40;;;5.03;;
50585;SDS011;36542;51.700;8.846;2023-01-24T07:04:56;8.17;;;5.60;;
50585;SDS011;36542;51.700;8.846;2023-01-24T07:07:22;7.20;;;4.17;;
50585;SDS011;36542;51.700;8.846;2023-01-24T07:09:47;8.83;;;5.63;;
50585;SDS011;36542;51.700;8.846;2023-01-24T07:12:13;6.37;;;4.83;;
50585;SDS011;36542;51.700;8.846;2023-01-24T07:14:38;5.93;;;5.13;;
50585;SDS011;36542;51.700;8.846;2023-01-24T07:17:04;6.07;;;4.77;;
50585;SDS011;36542;51.700;8.846;2023-01-24T07:19:30;7.50;;;6.00;;
50585;SDS011;36542;51.700;8.846;2023-01-24T07:21:55;7.13;;;6.30;;
50585;SDS011;36542;51.700;8.846;2023-01-24T07:24:22;7.13;;;5.53;;
50585;SDS011;36542;51.700;8.846;2023-01-24T07:26:54;8.37;;;6.43;;
50585;SDS011;36542;51.700;8.846;2023-01-24T07:29:20;7.03;;;5.90;;
50585;SDS011;36542;51.700;8.846;2023-01-24T07:31:46;10.30;;;7.63;;
50585;SDS011;36542;51.700;8.846;2023-01-24T07:34:15;9.63;;;8.20;;
50585;SDS011;36542;51.700;8.846;2023-01-24T07:36:42;11.93;;;8.97;;
50585;SDS011;36542;51.700;8.846;2023-01-24T07:39:08;13.57;;;9.60;;
50585;SDS011;36542;51.700;8.846;2023-01-24T07:41:37;9.40;;;7.83;;
50585;SDS011;36542;51.700;8.846;2023-01-24T07:44:03;10.17;;;7.83;;
50585;SDS011;36542;51.700;8.846;2023-01-24T07:46:31;9.77;;;7.13;;
50585;SDS011;36542;51.700;8.846;2023-01-24T07:48:57;9.63;;;7.10;;
50585;SDS011;36542;51.700;8.846;2023-01-24T07:51:23;11.10;;;8.77;;
50585;SDS011;36542;51.700;8.846;2023-01-24T07:53:48;12.33;;;9.30;;
50585;SDS011;36542;51.700;8.846;2023-01-24T07:56:14;10.83;;;8.83;;
50585;SDS011;36542;51.700;8.846;2023-01-24T07:58:42;10.07;;;7.90;;
50585;SDS011;36542;51.700;8.846;2023-01-24T08:01:08;10.43;;;8.20;;
50585;SDS011;36542;51.700;8.846;2023-01-24T08:03:34;8.50;;;6.93;;
50585;SDS011;36542;51.700;8.846;2023-01-24T08:05:59;9.10;;;7.47;;
50585;SDS011;36542;51.700;8.846;2023-01-24T08:08:25;9.33;;;7.60;;
50585;SDS011;36542;51.700;8.846;2023-01-24T08:10:50;9.43;;;7.60;;
50585;SDS011;36542;51.700;8.846;2023-01-24T08:13:16;11.97;;;9.17;;
50585;SDS011;36542;51.700;8.846;2023-01-24T08:15:41;9.87;;;8.47;;
50585;SDS011;36542;51.700;8.846;2023-01-24T08:18:07;10.40;;;8.23;;
50585;SDS011;36542;51.700;8.846;2023-01-24T08:20:32;8.87;;;7.10;;
50585;SDS011;36542;51.700;8.846;2023-01-24T08:22:58;8.67;;;7.07;;
50585;SDS011;36542;51.700;8.846;2023-01-24T08:25:24;8.57;;;7.00;;
50585;SDS011;36542;51.700;8.846;2023-01-24T08:27:51;9.80;;;7.10;;
50585;SDS011;36542;51.700;8.846;2023-01-24T08:30:16;11.53;;;7.80;;
50585;SDS011;36542;51.700;8.846;2023-01-24T08:32:42;9.90;;;7.90;;
50585;SDS011;36542;51.700;8.846;2023-01-24T08:35:07;12.00;;;8.93;;
50585;SDS011;36542;51.700;8.846;2023-01-24T08:37:33;9.03;;;6.53;;
50585;SDS011;36542;51.700;8.846;2023-01-24T08:39:59;9.77;;;7.03;;
50585;SDS011;36542;51.700;8.846;2023-01-24T08:42:24;10.20;;;7.67;;
50585;SDS011;36542;51.700;8.846;2023-01-24T08:44:50;9.67;;;7.80;;
50585;SDS011;36542;51.700;8.846;2023-01-24T08:47:16;10.60;;;8.20;;
50585;SDS011;36542;51.700;8.846;2023-01-24T08:49:41;9.10;;;7.57;;
50585;SDS011;36542;51.700;8.846;2023-01-24T08:52:07;11.17;;;8.83;;
50585;SDS011;36542;51.700;8.846;2023-01-24T08:54:33;10.70;;;8.33;;
50585;SDS011;36542;51.700;8.846;2023-01-24T08:57:00;12.67;;;9.37;;
50585;SDS011;36542;51.700;8.846;2023-01-24T08:59:26;11.63;;;8.17;;
50585;SDS011;36542;51.700;8.846;2023-01-24T09:01:52;8.50;;;7.33;;
50585;SDS011;36542;51.700;8.846;2023-01-24T09:04:17;9.87;;;7.60;;
50585;SDS011;36542;51.700;8.846;2023-01-24T09:06:43;11.23;;;8.57;;
50585;SDS011;36542;51.700;8.846;2023-01-24T09:09:08;12.10;;;8.57;;
50585;SDS011;36542;51.700;8.846;2023-01-24T09:11:34;10.50;;;8.40;;
50585;SDS011;36542;51.700;8.846;2023-01-24T09:14:00;12.47;;;9.00;;
50585;SDS011;36542;51.700;8.846;2023-01-24T09:16:25;13.37;;;9.33;;
50585;SDS011;36542;51.700;8.846;2023-01-24T09:18:52;12.23;;;9.50;;
50585;SDS011;36542;51.700;8.846;2023-01-24T09:21:18;12.57;;;8.53;;
50585;SDS011;36542;51.700;8.846;2023-01-24T09:23:44;11.20;;;8.63;;
50585;SDS011;36542;51.700;8.846;2023-01-24T09:26:10;10.17;;;8.33;;
50585;SDS011;36542;51.700;8.846;2023-01-24T09:28:35;13.27;;;9.93;;
50585;SDS011;36542;51.700;8.846;2023-01-24T09:31:01;12.80;;;9.80;;
50585;SDS011;36542;51.700;8.846;2023-01-24T09:33:27;13.30;;;10.30;;
50585;SDS011;36542;51.700;8.846;2023-01-24T09:35:59;13.70;;;10.63;;
50585;SDS011;36542;51.700;8.846;2023-01-24T09:38:27;10.37;;;7.70;;
50585;SDS011;36542;51.700;8.846;2023-01-24T09:41:10;10.27;;;8.07;;
50585;SDS011;36542;51.700;8.846;2023-01-24T09:43:49;11.53;;;8.47;;
50585;SDS011;36542;51.700;8.846;2023-01-24T09:46:22;13.60;;;9.50;;
50585;SDS011;36542;51.700;8.846;2023-01-24T09:51:56;13.17;;;10.13;;
50585;SDS011;36542;51.700;8.846;2023-01-24T09:56:53;13.73;;;10.67;;
50585;SDS011;36542;51.700;8.846;2023-01-24T10:02:12;8.97;;;7.53;;
50585;SDS011;36542;51.700;8.846;2023-01-24T10:04:41;13.33;;;10.67;;
50585;SDS011;36542;51.700;8.846;2023-01-24T10:09:49;15.30;;;10.60;;
50585;SDS011;36542;51.700;8.846;2023-01-24T10:15:46;9.97;;;8.00;;
50585;SDS011;36542;51.700;8.846;2023-01-24T10:18:46;12.63;;;9.53;;
50585;SDS011;36542;51.700;8.846;2023-01-24T10:21:49;11.90;;;9.00;;
50585;SDS011;36542;51.700;8.846;2023-01-24T10:24:51;10.60;;;7.90;;
50585;SDS011;36542;51.700;8.846;2023-01-24T10:27:28;9.47;;;8.07;;
50585;SDS011;36542;51.700;8.846;2023-01-24T10:30:26;10.10;;;7.43;;
50585;SDS011;36542;51.700;8.846;2023-01-24T10:32:58;11.83;;;9.80;;
50585;SDS011;36542;51.700;8.846;2023-01-24T10:35:36;13.57;;;9.43;;
50585;SDS011;36542;51.700;8.846;2023-01-24T10:38:07;10.03;;;7.43;;
50585;SDS011;36542;51.700;8.846;2023-01-24T10:40:47;11.30;;;8.00;;
50585;SDS011;36542;51.700;8.846;2023-01-24T10:43:14;9.23;;;8.00;;
50585;SDS011;36542;51.700;8.846;2023-01-24T10:51:14;9.53;;;7.77;;
50585;SDS011;36542;51.700;8.846;2023-01-24T10:53:41;9.37;;;8.30;;
50585;SDS011;36542;51.700;8.846;2023-01-24T10:56:07;10.30;;;8.23;;
50585;SDS011;36542;51.700;8.846;2023-01-24T10:58:40;9.83;;;8.37;;
50585;SDS011;36542;51.700;8.846;2023-01-24T11:01:19;9.10;;;7.70;;
50585;SDS011;36542;51.700;8.846;2023-01-24T11:03:47;10.03;;;8.43;;
50585;SDS011;36542;51.700;8.846;2023-01-24T11:09:13;11.07;;;8.97;;
50585;SDS011;36542;51.700;8.846;2023-01-24T11:11:41;12.33;;;9.43;;
50585;SDS011;36542;51.700;8.846;2023-01-24T11:14:32;10.83;;;9.50;;
50585;SDS011;36542;51.700;8.846;2023-01-24T11:17:00;10.13;;;7.77;;
50585;SDS011;36542;51.700;8.846;2023-01-24T11:19:33;10.53;;;8.73;;
50585;SDS011;36542;51.700;8.846;2023-01-24T11:22:19;8.80;;;7.77;;
50585;SDS011;36542;51.700;8.846;2023-01-24T11:24:49;12.20;;;8.70;;
50585;SDS011;36542;51.700;8.846;2023-01-24T11:27:20;10.73;;;8.00;;
50585;SDS011;36542;51.700;8.846;2023-01-24T11:30:03;9.27;;;7.80;;
50585;SDS011;36542;51.700;8.846;2023-01-24T11:35:42;11.60;;;7.93;;
50585;SDS011;36542;51.700;8.846;2023-01-24T11:38:21;12.30;;;8.90;;
50585;SDS011;36542;51.700;8.846;2023-01-24T11:46:29;9.13;;;7.47;;
50585;SDS011;36542;51.700;8.846;2023-01-24T11:51:50;25.30;;;14.37;;
50585;SDS011;36542;51.700;8.846;2023-01-24T11:54:48;12.03;;;9.07;;
50585;SDS011;36542;51.700;8.846;2023-01-24T11:57:38;17.57;;;13.07;;
50585;SDS011;36542;51.700;8.846;2023-01-24T12:00:27;9.50;;;7.50;;
50585;SDS011;36542;51.700;8.846;2023-01-24T12:11:12;11.77;;;8.57;;
50585;SDS011;36542;51.700;8.846;2023-01-24T12:16:36;13.60;;;10.67;;
50585;SDS011;36542;51.700;8.846;2023-01-24T12:19:25;12.40;;;9.70;;
50585;SDS011;36542;51.700;8.846;2023-01-24T12:21:57;11.10;;;8.30;;
50585;SDS011;36542;51.700;8.846;2023-01-24T12:24:24;11.17;;;9.17;;
50585;SDS011;36542;51.700;8.846;2023-01-24T12:27:01;14.67;;;11.80;;
50585;SDS011;36542;51.700;8.846;2023-01-24T12:29:32;12.30;;;9.20;;
50585;SDS011;36542;51.700;8.846;2023-01-24T12:32:36;14.40;;;9.87;;
50585;SDS011;36542;51.700;8.846;2023-01-24T12:41:08;11.80;;;9.73;;
50585;SDS011;36542;51.700;8.846;2023-01-24T12:46:17;14.00;;;10.60;;
50585;SDS011;36542;51.700;8.846;2023-01-24T12:48:58;11.90;;;9.97;;
50585;SDS011;36542;51.700;8.846;2023-01-24T12:51:46;10.27;;;8.57;;
50585;SDS011;36542;51.700;8.846;2023-01-24T12:54:35;11.47;;;8.77;;
50585;SDS011;36542;51.700;8.846;2023-01-24T12:57:18;12.63;;;10.00;;
50585;SDS011;36542;51.700;8.846;2023-01-24T12:59:51;11.67;;;9.43;;
50585;SDS011;36542;51.700;8.846;2023-01-24T13:11:02;13.77;;;9.83;;
50585;SDS011;36542;51.700;8.846;2023-01-24T13:13:49;11.87;;;9.27;;
50585;SDS011;36542;51.700;8.846;2023-01-24T13:19:06;14.97;;;10.90;;
50585;SDS011;36542;51.700;8.846;2023-01-24T13:24:39;10.90;;;9.47;;
50585;SDS011;36542;51.700;8.846;2023-01-24T13:27:40;11.40;;;9.37;;
50585;SDS011;36542;51.700;8.846;2023-01-24T13:33:32;12.07;;;9.23;;
50585;SDS011;36542;51.700;8.846;2023-01-24T13:36:06;10.47;;;8.97;;
50585;SDS011;36542;51.700;8.846;2023-01-24T13:38:40;12.47;;;8.57;;
50585;SDS011;36542;51.700;8.846;2023-01-24T13:41:12;12.97;;;9.27;;
50585;SDS011;36542;51.700;8.846;2023-01-24T13:49:16;12.07;;;8.93;;
50585;SDS011;36542;51.700;8.846;2023-01-24T13:51:48;13.43;;;9.23;;
50585;SDS011;36542;51.700;8.846;2023-01-24T13:54:18;12.27;;;9.50;;
50585;SDS011;36542;51.700;8.846;2023-01-24T14:07:56;12.23;;;9.10;;
50585;SDS011;36542;51.700;8.846;2023-01-24T14:10:31;11.67;;;8.07;;
50585;SDS011;36542;51.700;8.846;2023-01-24T14:12:59;13.83;;;10.03;;
50585;SDS011;36542;51.700;8.846;2023-01-24T14:15:26;18.30;;;12.90;;
50585;SDS011;36542;51.700;8.846;2023-01-24T14:18:39;13.43;;;10.17;;
50585;SDS011;36542;51.700;8.846;2023-01-24T14:21:04;12.70;;;9.70;;
50585;SDS011;36542;51.700;8.846;2023-01-24T14:23:37;17.90;;;10.80;;
50585;SDS011;36542;51.700;8.846;2023-01-24T14:26:05;17.03;;;10.57;;
50585;SDS011;36542;51.700;8.846;2023-01-24T14:28:42;12.77;;;9.73;;
50585;SDS011;36542;51.700;8.846;2023-01-24T14:31:24;11.07;;;8.77;;
50585;SDS011;36542;51.700;8.846;2023-01-24T14:34:13;9.60;;;7.57;;
50585;SDS011;36542;51.700;8.846;2023-01-24T14:37:04;13.87;;;10.40;;
50585;SDS011;36542;51.700;8.846;2023-01-24T14:39:33;17.53;;;11.63;;
50585;SDS011;36542;51.700;8.846;2023-01-24T14:42:00;13.50;;;9.90;;
50585;SDS011;36542;51.700;8.846;2023-01-24T14:44:34;12.47;;;10.07;;
50585;SDS011;36542;51.700;8.846;2023-01-24T14:47:02;15.57;;;10.73;;
50585;SDS011;36542;51.700;8.846;2023-01-24T14:49:30;15.00;;;11.37;;
50585;SDS011;36542;51.700;8.846;2023-01-24T14:52:01;17.13;;;12.20;;
50585;SDS011;36542;51.700;8.846;2023-01-24T14:54:42;15.60;;;10.47;;
50585;SDS011;36542;51.700;8.846;2023-01-24T14:57:29;13.93;;;10.13;;
50585;SDS011;36542;51.700;8.846;2023-01-24T15:02:25;13.00;;;9.93;;
50585;SDS011;36542;51.700;8.846;2023-01-24T15:04:51;14.03;;;9.53;;
50585;SDS011;36542;51.700;8.846;2023-01-24T15:07:16;15.20;;;11.23;;
50585;SDS011;36542;51.700;8.846;2023-01-24T15:09:42;23.37;;;14.53;;
50585;SDS011;36542;51.700;8.846;2023-01-24T15:14:59;11.40;;;9.07;;
50585;SDS011;36542;51.700;8.846;2023-01-24T15:17:27;12.07;;;8.53;;
50585;SDS011;36542;51.700;8.846;2023-01-24T15:19:54;10.40;;;8.53;;
50585;SDS011;36542;51.700;8.846;2023-01-24T15:22:23;12.67;;;9.80;;
50585;SDS011;36542;51.700;8.846;2023-01-24T15:24:52;13.10;;;10.00;;
50585;SDS011;36542;51.700;8.846;2023-01-24T15:27:20;13.87;;;10.37;;
50585;SDS011;36542;51.700;8.846;2023-01-24T15:29:49;13.43;;;10.53;;
50585;SDS011;36542;51.700;8.846;2023-01-24T15:37:38;12.70;;;9.87;;
50585;SDS011;36542;51.700;8.846;2023-01-24T15:40:04;15.30;;;10.50;;
50585;SDS011;36542;51.700;8.846;2023-01-24T15:42:37;16.23;;;11.87;;
50585;SDS011;36542;51.700;8.846;2023-01-24T15:45:21;14.90;;;10.20;;
50585;SDS011;36542;51.700;8.846;2023-01-24T15:47:47;15.43;;;10.83;;
50585;SDS011;36542;51.700;8.846;2023-01-24T15:50:37;12.33;;;8.73;;
50585;SDS011;36542;51.700;8.846;2023-01-24T15:53:35;14.83;;;11.70;;
50585;SDS011;36542;51.700;8.846;2023-01-24T15:56:07;16.33;;;12.07;;
50585;SDS011;36542;51.700;8.846;2023-01-24T15:58:37;18.53;;;12.30;;
50585;SDS011;36542;51.700;8.846;2023-01-24T16:01:03;15.57;;;9.83;;
50585;SDS011;36542;51.700;8.846;2023-01-24T16:03:29;18.07;;;11.47;;
50585;SDS011;36542;51.700;8.846;2023-01-24T16:05:55;17.43;;;12.20;;
50585;SDS011;36542;51.700;8.846;2023-01-24T16:08:21;16.57;;;11.27;;
50585;SDS011;36542;51.700;8.846;2023-01-24T16:10:49;17.97;;;11.90;;
50585;SDS011;36542;51.700;8.846;2023-01-24T16:13:31;18.50;;;13.27;;
50585;SDS011;36542;51.700;8.846;2023-01-24T16:16:05;18.23;;;11.50;;
50585;SDS011;36542;51.700;8.846;2023-01-24T16:18:32;16.73;;;11.57;;
50585;SDS011;36542;51.700;8.846;2023-01-24T16:20:58;16.93;;;12.23;;
50585;SDS011;36542;51.700;8.846;2023-01-24T16:23:24;17.57;;;11.97;;
50585;SDS011;36542;51.700;8.846;2023-01-24T16:25:50;14.73;;;11.43;;
50585;SDS011;36542;51.700;8.846;2023-01-24T16:28:24;15.40;;;10.80;;
50585;SDS011;36542;51.700;8.846;2023-01-24T16:30:52;18.00;;;12.60;;
50585;SDS011;36542;51.700;8.846;2023-01-24T16:33:19;16.87;;;12.07;;
50585;SDS011;36542;51.700;8.846;2023-01-24T16:35:45;17.17;;;12.33;;
50585;SDS011;36542;51.700;8.846;2023-01-24T16:38:12;19.13;;;13.57;;
50585;SDS011;36542;51.700;8.846;2023-01-24T16:40:39;21.03;;;13.70;;
50585;SDS011;36542;51.700;8.846;2023-01-24T16:43:05;23.33;;;14.83;;